WS04 weather

Zanadu Airport
Arkdale, Wisconsin, United States

Public forecast

Using degrees Fahrenheit for public forecast. Weather courtesy of forecast.io.

Closest aviation weather report (METAR) to Zanadu Airport

Closest report is Mauston New Lisbon Union Airport, 16.6 nm (30.7 km) SW. Retrieved 2019/10/15 02:35 UTC (0 seconds ago):

K82C 150235Z AUTO 00000KT 7SM CLR 02/01 A2998 RMK AO2 T00220012

Closest aviation forecast (TAF) to Zanadu Airport

Forecast is more than 12 hours old.

Closest forecast is Volk Field, 17.7 nm (32.8 km) WSW. Retrieved 2019/10/11 17:09 UTC (3 days ago):

TAF KVOK 111700Z 1117/1223 27010G15KT 9999 OVC020 QNH2982INS BECMG 1122/1123 23012KT 8000 -RA OVC010 620209 QNH2984INS TEMPO 1200/1204 -RASN 620109 BECMG 1204/1205 23009KT 9999 NSW OVC010 QNH2979INS BECMG 1214/1215 23015G25KT 9999 BKN025 QNH2970INS TX07/1117Z TNM01/1213Z LAST NO AMDS AFT 1120 NEXT 1509